sensor_id;sensor_type;location;lat;lon;timestamp;P1;durP1;ratioP1;P2;durP2;ratioP2
11000;SDS011;5553;48.506;8.870;2023-03-01T00:01:55;23.80;;;12.50;;
11000;SDS011;5553;48.506;8.870;2023-03-01T00:04:23;20.00;;;12.07;;
11000;SDS011;5553;48.506;8.870;2023-03-01T00:06:52;24.73;;;13.30;;
11000;SDS011;5553;48.506;8.870;2023-03-01T00:09:23;25.10;;;13.43;;
11000;SDS011;5553;48.506;8.870;2023-03-01T00:11:51;27.80;;;13.93;;
11000;SDS011;5553;48.506;8.870;2023-03-01T00:14:20;27.97;;;14.13;;
11000;SDS011;5553;48.506;8.870;2023-03-01T00:16:48;25.17;;;13.87;;
11000;SDS011;5553;48.506;8.870;2023-03-01T00:19:18;30.60;;;14.73;;
11000;SDS011;5553;48.506;8.870;2023-03-01T00:21:47;24.90;;;13.50;;
11000;SDS011;5553;48.506;8.870;2023-03-01T00:24:16;24.37;;;12.80;;
11000;SDS011;5553;48.506;8.870;2023-03-01T00:26:47;26.40;;;13.20;;
11000;SDS011;5553;48.506;8.870;2023-03-01T00:29:15;25.00;;;14.87;;
11000;SDS011;5553;48.506;8.870;2023-03-01T00:31:43;22.73;;;12.37;;
11000;SDS011;5553;48.506;8.870;2023-03-01T00:34:12;19.40;;;12.10;;
11000;SDS011;5553;48.506;8.870;2023-03-01T00:36:40;23.10;;;12.17;;
11000;SDS011;5553;48.506;8.870;2023-03-01T00:39:09;31.70;;;12.10;;
11000;SDS011;5553;48.506;8.870;2023-03-01T00:41:39;21.73;;;12.93;;
11000;SDS011;5553;48.506;8.870;2023-03-01T00:44:10;20.73;;;11.83;;
11000;SDS011;5553;48.506;8.870;2023-03-01T00:46:38;21.03;;;12.80;;
11000;SDS011;5553;48.506;8.870;2023-03-01T00:49:07;23.60;;;12.23;;
11000;SDS011;5553;48.506;8.870;2023-03-01T00:51:35;28.50;;;14.00;;
11000;SDS011;5553;48.506;8.870;2023-03-01T00:54:07;26.90;;;13.13;;
11000;SDS011;5553;48.506;8.870;2023-03-01T00:56:36;22.93;;;12.40;;
11000;SDS011;5553;48.506;8.870;2023-03-01T00:59:05;25.00;;;12.93;;
11000;SDS011;5553;48.506;8.870;2023-03-01T01:01:36;21.03;;;12.27;;
11000;SDS011;5553;48.506;8.870;2023-03-01T01:04:05;25.17;;;13.77;;
11000;SDS011;5553;48.506;8.870;2023-03-01T01:06:36;19.83;;;11.70;;
11000;SDS011;5553;48.506;8.870;2023-03-01T01:09:10;28.20;;;12.93;;
11000;SDS011;5553;48.506;8.870;2023-03-01T01:11:42;28.70;;;13.47;;
11000;SDS011;5553;48.506;8.870;2023-03-01T01:14:11;30.93;;;14.37;;
11000;SDS011;5553;48.506;8.870;2023-03-01T01:16:42;24.93;;;12.47;;
11000;SDS011;5553;48.506;8.870;2023-03-01T01:19:11;19.97;;;12.20;;
11000;SDS011;5553;48.506;8.870;2023-03-01T01:21:43;23.83;;;12.43;;
11000;SDS011;5553;48.506;8.870;2023-03-01T01:24:13;21.83;;;13.40;;
11000;SDS011;5553;48.506;8.870;2023-03-01T01:26:42;23.87;;;13.10;;
11000;SDS011;5553;48.506;8.870;2023-03-01T01:29:10;24.97;;;12.37;;
11000;SDS011;5553;48.506;8.870;2023-03-01T01:31:42;26.87;;;13.87;;
11000;SDS011;5553;48.506;8.870;2023-03-01T01:34:13;24.93;;;12.80;;
11000;SDS011;5553;48.506;8.870;2023-03-01T01:36:43;21.90;;;12.40;;
11000;SDS011;5553;48.506;8.870;2023-03-01T01:39:11;20.43;;;12.90;;
11000;SDS011;5553;48.506;8.870;2023-03-01T01:41:40;24.63;;;13.17;;
11000;SDS011;5553;48.506;8.870;2023-03-01T01:44:10;27.17;;;13.30;;
11000;SDS011;5553;48.506;8.870;2023-03-01T01:46:44;20.93;;;11.80;;
11000;SDS011;5553;48.506;8.870;2023-03-01T01:49:17;24.80;;;13.17;;
11000;SDS011;5553;48.506;8.870;2023-03-01T01:51:51;24.17;;;12.13;;
11000;SDS011;5553;48.506;8.870;2023-03-01T01:54:26;24.80;;;13.77;;
11000;SDS011;5553;48.506;8.870;2023-03-01T01:56:59;26.40;;;13.57;;
11000;SDS011;5553;48.506;8.870;2023-03-01T01:59:31;25.70;;;13.07;;
11000;SDS011;5553;48.506;8.870;2023-03-01T02:02:03;23.93;;;12.17;;
11000;SDS011;5553;48.506;8.870;2023-03-01T02:04:32;21.50;;;11.93;;
11000;SDS011;5553;48.506;8.870;2023-03-01T02:07:01;21.40;;;12.23;;
11000;SDS011;5553;48.506;8.870;2023-03-01T02:09:34;21.43;;;12.20;;
11000;SDS011;5553;48.506;8.870;2023-03-01T02:12:03;23.30;;;13.93;;
11000;SDS011;5553;48.506;8.870;2023-03-01T02:14:32;24.40;;;12.67;;
11000;SDS011;5553;48.506;8.870;2023-03-01T02:17:03;27.57;;;13.07;;
11000;SDS011;5553;48.506;8.870;2023-03-01T02:19:35;24.87;;;12.37;;
11000;SDS011;5553;48.506;8.870;2023-03-01T02:22:14;24.07;;;13.63;;
11000;SDS011;5553;48.506;8.870;2023-03-01T02:24:50;28.77;;;12.33;;
11000;SDS011;5553;48.506;8.870;2023-03-01T02:27:30;25.70;;;12.87;;
11000;SDS011;5553;48.506;8.870;2023-03-01T02:30:07;24.63;;;12.80;;
11000;SDS011;5553;48.506;8.870;2023-03-01T02:32:38;26.00;;;13.50;;
11000;SDS011;5553;48.506;8.870;2023-03-01T02:35:07;31.47;;;15.40;;
11000;SDS011;5553;48.506;8.870;2023-03-01T02:37:36;27.97;;;14.07;;
11000;SDS011;5553;48.506;8.870;2023-03-01T02:40:06;30.27;;;14.03;;
11000;SDS011;5553;48.506;8.870;2023-03-01T02:42:41;27.43;;;14.07;;
11000;SDS011;5553;48.506;8.870;2023-03-01T02:45:17;30.30;;;13.70;;
11000;SDS011;5553;48.506;8.870;2023-03-01T02:47:46;20.67;;;12.87;;
11000;SDS011;5553;48.506;8.870;2023-03-01T02:50:18;28.03;;;13.80;;
11000;SDS011;5553;48.506;8.870;2023-03-01T02:52:55;22.90;;;13.17;;
11000;SDS011;5553;48.506;8.870;2023-03-01T02:55:29;24.00;;;12.83;;
11000;SDS011;5553;48.506;8.870;2023-03-01T02:57:57;27.03;;;13.73;;
11000;SDS011;5553;48.506;8.870;2023-03-01T03:00:32;22.00;;;13.50;;
11000;SDS011;5553;48.506;8.870;2023-03-01T03:03:05;25.20;;;13.37;;
11000;SDS011;5553;48.506;8.870;2023-03-01T03:05:34;24.83;;;13.70;;
11000;SDS011;5553;48.506;8.870;2023-03-01T03:08:03;27.33;;;13.70;;
11000;SDS011;5553;48.506;8.870;2023-03-01T03:10:33;21.20;;;13.23;;
11000;SDS011;5553;48.506;8.870;2023-03-01T03:13:05;26.73;;;14.00;;
11000;SDS011;5553;48.506;8.870;2023-03-01T03:15:38;29.97;;;14.50;;
11000;SDS011;5553;48.506;8.870;2023-03-01T03:18:08;26.07;;;13.50;;
11000;SDS011;5553;48.506;8.870;2023-03-01T03:20:39;25.70;;;13.90;;
11000;SDS011;5553;48.506;8.870;2023-03-01T03:23:08;32.90;;;15.80;;
11000;SDS011;5553;48.506;8.870;2023-03-01T03:25:37;25.43;;;12.53;;
11000;SDS011;5553;48.506;8.870;2023-03-01T03:28:06;26.67;;;14.03;;
11000;SDS011;5553;48.506;8.870;2023-03-01T03:30:39;26.87;;;14.20;;
11000;SDS011;5553;48.506;8.870;2023-03-01T03:33:09;24.13;;;12.57;;
11000;SDS011;5553;48.506;8.870;2023-03-01T03:35:39;25.77;;;14.00;;
11000;SDS011;5553;48.506;8.870;2023-03-01T03:38:10;23.73;;;13.87;;
11000;SDS011;5553;48.506;8.870;2023-03-01T03:40:45;33.70;;;14.60;;
11000;SDS011;5553;48.506;8.870;2023-03-01T03:43:14;26.93;;;14.57;;
11000;SDS011;5553;48.506;8.870;2023-03-01T03:45:47;30.87;;;14.30;;
11000;SDS011;5553;48.506;8.870;2023-03-01T03:48:16;28.27;;;15.13;;
11000;SDS011;5553;48.506;8.870;2023-03-01T03:50:47;24.20;;;14.77;;
11000;SDS011;5553;48.506;8.870;2023-03-01T03:53:17;30.63;;;13.50;;
11000;SDS011;5553;48.506;8.870;2023-03-01T03:55:46;25.60;;;14.40;;
11000;SDS011;5553;48.506;8.870;2023-03-01T03:58:17;26.83;;;14.20;;
11000;SDS011;5553;48.506;8.870;2023-03-01T04:00:50;30.47;;;15.13;;
11000;SDS011;5553;48.506;8.870;2023-03-01T04:03:20;22.70;;;13.03;;
11000;SDS011;5553;48.506;8.870;2023-03-01T04:05:50;29.27;;;13.87;;
11000;SDS011;5553;48.506;8.870;2023-03-01T04:08:20;26.23;;;14.00;;
11000;SDS011;5553;48.506;8.870;2023-03-01T04:10:49;29.43;;;13.87;;
11000;SDS011;5553;48.506;8.870;2023-03-01T04:13:19;25.80;;;14.30;;
11000;SDS011;5553;48.506;8.870;2023-03-01T04:15:53;29.20;;;13.90;;
11000;SDS011;5553;48.506;8.870;2023-03-01T04:18:22;25.90;;;13.27;;
11000;SDS011;5553;48.506;8.870;2023-03-01T04:20:52;24.70;;;13.13;;
11000;SDS011;5553;48.506;8.870;2023-03-01T04:23:20;25.67;;;14.00;;
11000;SDS011;5553;48.506;8.870;2023-03-01T04:25:49;27.40;;;13.20;;
11000;SDS011;5553;48.506;8.870;2023-03-01T04:28:22;31.97;;;16.40;;
11000;SDS011;5553;48.506;8.870;2023-03-01T04:30:55;26.60;;;15.50;;
11000;SDS011;5553;48.506;8.870;2023-03-01T04:33:25;27.97;;;14.23;;
11000;SDS011;5553;48.506;8.870;2023-03-01T04:35:53;25.47;;;14.03;;
11000;SDS011;5553;48.506;8.870;2023-03-01T04:38:22;27.67;;;14.20;;
11000;SDS011;5553;48.506;8.870;2023-03-01T04:40:50;28.77;;;14.57;;
11000;SDS011;5553;48.506;8.870;2023-03-01T04:43:19;28.23;;;14.03;;
11000;SDS011;5553;48.506;8.870;2023-03-01T04:45:47;28.27;;;14.50;;
11000;SDS011;5553;48.506;8.870;2023-03-01T04:48:18;26.00;;;15.43;;
11000;SDS011;5553;48.506;8.870;2023-03-01T04:50:47;22.40;;;14.10;;
11000;SDS011;5553;48.506;8.870;2023-03-01T04:53:15;26.17;;;14.60;;
11000;SDS011;5553;48.506;8.870;2023-03-01T04:55:43;34.60;;;15.33;;
11000;SDS011;5553;48.506;8.870;2023-03-01T04:58:11;27.60;;;14.30;;
11000;SDS011;5553;48.506;8.870;2023-03-01T05:00:40;28.03;;;14.83;;
11000;SDS011;5553;48.506;8.870;2023-03-01T05:03:08;23.67;;;14.50;;
11000;SDS011;5553;48.506;8.870;2023-03-01T05:05:39;27.77;;;15.60;;
11000;SDS011;5553;48.506;8.870;2023-03-01T05:08:09;25.37;;;13.87;;
11000;SDS011;5553;48.506;8.870;2023-03-01T05:10:42;25.10;;;13.33;;
11000;SDS011;5553;48.506;8.870;2023-03-01T05:13:11;26.97;;;13.93;;
11000;SDS011;5553;48.506;8.870;2023-03-01T05:15:46;27.17;;;13.70;;
11000;SDS011;5553;48.506;8.870;2023-03-01T05:18:14;27.80;;;14.53;;
11000;SDS011;5553;48.506;8.870;2023-03-01T05:20:45;23.40;;;14.50;;
11000;SDS011;5553;48.506;8.870;2023-03-01T05:23:13;27.50;;;14.37;;
11000;SDS011;5553;48.506;8.870;2023-03-01T05:25:42;26.77;;;14.90;;
11000;SDS011;5553;48.506;8.870;2023-03-01T05:28:10;28.70;;;16.43;;
11000;SDS011;5553;48.506;8.870;2023-03-01T05:30:39;29.40;;;15.03;;
11000;SDS011;5553;48.506;8.870;2023-03-01T05:33:08;29.07;;;16.43;;
11000;SDS011;5553;48.506;8.870;2023-03-01T05:35:38;27.80;;;13.77;;
11000;SDS011;5553;48.506;8.870;2023-03-01T05:38:10;30.20;;;15.47;;
11000;SDS011;5553;48.506;8.870;2023-03-01T05:40:40;28.20;;;14.53;;
11000;SDS011;5553;48.506;8.870;2023-03-01T05:43:09;33.13;;;15.00;;
11000;SDS011;5553;48.506;8.870;2023-03-01T05:45:38;29.00;;;13.47;;
11000;SDS011;5553;48.506;8.870;2023-03-01T05:48:07;31.50;;;16.57;;
11000;SDS011;5553;48.506;8.870;2023-03-01T05:50:37;39.13;;;17.37;;
11000;SDS011;5553;48.506;8.870;2023-03-01T05:53:08;32.03;;;16.53;;
11000;SDS011;5553;48.506;8.870;2023-03-01T05:55:40;35.90;;;17.67;;
11000;SDS011;5553;48.506;8.870;2023-03-01T05:58:11;27.37;;;14.83;;
11000;SDS011;5553;48.506;8.870;2023-03-01T06:00:42;29.20;;;14.70;;
11000;SDS011;5553;48.506;8.870;2023-03-01T06:03:12;27.17;;;15.90;;
11000;SDS011;5553;48.506;8.870;2023-03-01T06:05:41;28.80;;;15.40;;
11000;SDS011;5553;48.506;8.870;2023-03-01T06:08:13;26.57;;;15.07;;
11000;SDS011;5553;48.506;8.870;2023-03-01T06:10:41;33.80;;;17.47;;
11000;SDS011;5553;48.506;8.870;2023-03-01T06:13:09;29.87;;;15.77;;
11000;SDS011;5553;48.506;8.870;2023-03-01T06:15:38;27.00;;;14.40;;
11000;SDS011;5553;48.506;8.870;2023-03-01T06:18:06;27.47;;;15.67;;
11000;SDS011;5553;48.506;8.870;2023-03-01T06:20:34;26.93;;;16.70;;
11000;SDS011;5553;48.506;8.870;2023-03-01T06:23:02;28.30;;;14.77;;
11000;SDS011;5553;48.506;8.870;2023-03-01T06:25:33;28.63;;;15.90;;
11000;SDS011;5553;48.506;8.870;2023-03-01T06:28:02;26.13;;;15.20;;
11000;SDS011;5553;48.506;8.870;2023-03-01T06:30:30;31.77;;;16.33;;
11000;SDS011;5553;48.506;8.870;2023-03-01T06:32:58;26.60;;;14.03;;
11000;SDS011;5553;48.506;8.870;2023-03-01T06:35:28;28.70;;;15.60;;
11000;SDS011;5553;48.506;8.870;2023-03-01T06:37:57;26.93;;;15.57;;
11000;SDS011;5553;48.506;8.870;2023-03-01T06:40:26;31.40;;;16.20;;
11000;SDS011;5553;48.506;8.870;2023-03-01T06:42:58;28.27;;;16.73;;
11000;SDS011;5553;48.506;8.870;2023-03-01T06:45:26;28.97;;;16.23;;
11000;SDS011;5553;48.506;8.870;2023-03-01T06:48:01;33.77;;;15.63;;
11000;SDS011;5553;48.506;8.870;2023-03-01T06:50:31;29.97;;;15.37;;
11000;SDS011;5553;48.506;8.870;2023-03-01T06:52:59;34.60;;;17.13;;
11000;SDS011;5553;48.506;8.870;2023-03-01T06:55:27;25.80;;;16.33;;
11000;SDS011;5553;48.506;8.870;2023-03-01T06:57:59;29.70;;;16.87;;
11000;SDS011;5553;48.506;8.870;2023-03-01T07:00:28;31.90;;;15.80;;
11000;SDS011;5553;48.506;8.870;2023-03-01T07:02:58;29.47;;;15.17;;
11000;SDS011;5553;48.506;8.870;2023-03-01T07:05:27;35.13;;;18.13;;
11000;SDS011;5553;48.506;8.870;2023-03-01T07:07:56;32.13;;;16.80;;
11000;SDS011;5553;48.506;8.870;2023-03-01T07:10:24;32.17;;;17.23;;
11000;SDS011;5553;48.506;8.870;2023-03-01T07:12:54;32.10;;;16.17;;
11000;SDS011;5553;48.506;8.870;2023-03-01T07:15:25;28.90;;;14.50;;
11000;SDS011;5553;48.506;8.870;2023-03-01T07:17:54;26.83;;;15.80;;
11000;SDS011;5553;48.506;8.870;2023-03-01T07:20:23;31.30;;;16.73;;
11000;SDS011;5553;48.506;8.870;2023-03-01T07:22:52;28.57;;;15.90;;
11000;SDS011;5553;48.506;8.870;2023-03-01T07:27:49;30.80;;;15.20;;
11000;SDS011;5553;48.506;8.870;2023-03-01T07:30:18;35.30;;;19.87;;
11000;SDS011;5553;48.506;8.870;2023-03-01T07:32:49;28.33;;;17.67;;
11000;SDS011;5553;48.506;8.870;2023-03-01T07:35:17;34.77;;;17.43;;
11000;SDS011;5553;48.506;8.870;2023-03-01T07:42:43;28.20;;;15.63;;
11000;SDS011;5553;48.506;8.870;2023-03-01T07:45:11;30.60;;;17.30;;
11000;SDS011;5553;48.506;8.870;2023-03-01T07:47:39;33.10;;;16.43;;
11000;SDS011;5553;48.506;8.870;2023-03-01T07:50:11;35.23;;;17.33;;
11000;SDS011;5553;48.506;8.870;2023-03-01T07:52:40;25.30;;;15.63;;
11000;SDS011;5553;48.506;8.870;2023-03-01T07:55:09;26.70;;;15.93;;
11000;SDS011;5553;48.506;8.870;2023-03-01T07:57:37;27.40;;;14.53;;
11000;SDS011;5553;48.506;8.870;2023-03-01T08:00:06;25.67;;;14.73;;
11000;SDS011;5553;48.506;8.870;2023-03-01T08:02:36;29.60;;;15.60;;
11000;SDS011;5553;48.506;8.870;2023-03-01T08:05:05;39.93;;;16.03;;
11000;SDS011;5553;48.506;8.870;2023-03-01T08:07:37;31.70;;;15.97;;
11000;SDS011;5553;48.506;8.870;2023-03-01T08:10:05;28.10;;;15.77;;
11000;SDS011;5553;48.506;8.870;2023-03-01T08:12:34;29.60;;;17.70;;
11000;SDS011;5553;48.506;8.870;2023-03-01T08:15:03;30.03;;;17.67;;
11000;SDS011;5553;48.506;8.870;2023-03-01T08:17:31;31.60;;;17.20;;
11000;SDS011;5553;48.506;8.870;2023-03-01T08:20:00;34.30;;;19.20;;
11000;SDS011;5553;48.506;8.870;2023-03-01T08:22:28;29.40;;;16.33;;
11000;SDS011;5553;48.506;8.870;2023-03-01T08:24:59;30.57;;;19.03;;
11000;SDS011;5553;48.506;8.870;2023-03-01T08:27:27;28.47;;;16.17;;
11000;SDS011;5553;48.506;8.870;2023-03-01T08:29:55;27.40;;;15.73;;
11000;SDS011;5553;48.506;8.870;2023-03-01T08:32:24;26.80;;;16.87;;
11000;SDS011;5553;48.506;8.870;2023-03-01T08:34:52;27.30;;;15.90;;
11000;SDS011;5553;48.506;8.870;2023-03-01T08:37:20;24.50;;;15.07;;
11000;SDS011;5553;48.506;8.870;2023-03-01T08:39:48;29.73;;;16.40;;
11000;SDS011;5553;48.506;8.870;2023-03-01T08:42:19;28.50;;;16.60;;
11000;SDS011;5553;48.506;8.870;2023-03-01T08:44:47;26.50;;;16.13;;
11000;SDS011;5553;48.506;8.870;2023-03-01T08:47:16;25.33;;;15.67;;
11000;SDS011;5553;48.506;8.870;2023-03-01T08:49:44;23.40;;;16.13;;
11000;SDS011;5553;48.506;8.870;2023-03-01T08:52:12;29.90;;;16.97;;
11000;SDS011;5553;48.506;8.870;2023-03-01T08:54:40;28.33;;;15.17;;
11000;SDS011;5553;48.506;8.870;2023-03-01T08:57:09;28.63;;;15.80;;
11000;SDS011;5553;48.506;8.870;2023-03-01T08:59:40;25.37;;;16.10;;
11000;SDS011;5553;48.506;8.870;2023-03-01T09:02:10;28.30;;;16.80;;
11000;SDS011;5553;48.506;8.870;2023-03-01T09:04:40;28.20;;;15.47;;
11000;SDS011;5553;48.506;8.870;2023-03-01T09:07:09;32.97;;;16.50;;
11000;SDS011;5553;48.506;8.870;2023-03-01T09:09:37;23.60;;;15.43;;
11000;SDS011;5553;48.506;8.870;2023-03-01T09:12:06;28.80;;;16.20;;
11000;SDS011;5553;48.506;8.870;2023-03-01T09:14:34;24.07;;;14.13;;
11000;SDS011;5553;48.506;8.870;2023-03-01T09:17:06;25.60;;;15.90;;
11000;SDS011;5553;48.506;8.870;2023-03-01T09:19:34;30.27;;;17.67;;
11000;SDS011;5553;48.506;8.870;2023-03-01T09:22:02;26.70;;;16.10;;
11000;SDS011;5553;48.506;8.870;2023-03-01T09:24:31;30.17;;;18.67;;
11000;SDS011;5553;48.506;8.870;2023-03-01T09:26:59;25.40;;;16.80;;
11000;SDS011;5553;48.506;8.870;2023-03-01T09:29:27;23.23;;;15.67;;
11000;SDS011;5553;48.506;8.870;2023-03-01T09:31:56;29.33;;;17.17;;
11000;SDS011;5553;48.506;8.870;2023-03-01T09:34:27;26.10;;;17.10;;
11000;SDS011;5553;48.506;8.870;2023-03-01T09:36:56;28.20;;;16.40;;
11000;SDS011;5553;48.506;8.870;2023-03-01T09:39:27;32.70;;;18.57;;
11000;SDS011;5553;48.506;8.870;2023-03-01T09:41:58;27.20;;;16.97;;
11000;SDS011;5553;48.506;8.870;2023-03-01T09:44:31;30.60;;;17.97;;
11000;SDS011;5553;48.506;8.870;2023-03-01T09:47:03;28.67;;;17.53;;
11000;SDS011;5553;48.506;8.870;2023-03-01T09:49:36;29.60;;;16.70;;
11000;SDS011;5553;48.506;8.870;2023-03-01T09:52:16;26.90;;;17.90;;
11000;SDS011;5553;48.506;8.870;2023-03-01T09:54:52;28.03;;;17.37;;
11000;SDS011;5553;48.506;8.870;2023-03-01T09:57:26;25.87;;;15.73;;
11000;SDS011;5553;48.506;8.870;2023-03-01T10:00:09;30.40;;;18.17;;
11000;SDS011;5553;48.506;8.870;2023-03-01T10:02:48;29.33;;;17.57;;
11000;SDS011;5553;48.506;8.870;2023-03-01T10:05:25;26.93;;;16.70;;
11000;SDS011;5553;48.506;8.870;2023-03-01T10:11:01;24.40;;;17.10;;
11000;SDS011;5553;48.506;8.870;2023-03-01T10:13:33;28.53;;;16.50;;
11000;SDS011;5553;48.506;8.870;2023-03-01T10:16:12;32.90;;;17.87;;
11000;SDS011;5553;48.506;8.870;2023-03-01T10:18:42;27.23;;;15.93;;
11000;SDS011;5553;48.506;8.870;2023-03-01T10:21:17;27.60;;;16.93;;
11000;SDS011;5553;48.506;8.870;2023-03-01T10:23:49;28.07;;;18.20;;
11000;SDS011;5553;48.506;8.870;2023-03-01T10:26:22;27.10;;;16.60;;
11000;SDS011;5553;48.506;8.870;2023-03-01T10:29:03;27.53;;;15.40;;
11000;SDS011;5553;48.506;8.870;2023-03-01T10:31:36;23.80;;;15.70;;
11000;SDS011;5553;48.506;8.870;2023-03-01T10:34:09;26.13;;;17.77;;
11000;SDS011;5553;48.506;8.870;2023-03-01T10:36:42;25.90;;;17.33;;
11000;SDS011;5553;48.506;8.870;2023-03-01T10:39:13;29.03;;;17.73;;
11000;SDS011;5553;48.506;8.870;2023-03-01T10:41:52;26.60;;;16.97;;
11000;SDS011;5553;48.506;8.870;2023-03-01T10:44:39;24.13;;;15.97;;
11000;SDS011;5553;48.506;8.870;2023-03-01T10:47:14;30.80;;;17.93;;
11000;SDS011;5553;48.506;8.870;2023-03-01T10:49:52;25.50;;;17.43;;
11000;SDS011;5553;48.506;8.870;2023-03-01T10:52:29;28.90;;;17.00;;
11000;SDS011;5553;48.506;8.870;2023-03-01T10:54:59;27.47;;;16.10;;
11000;SDS011;5553;48.506;8.870;2023-03-01T10:57:32;22.37;;;16.20;;
11000;SDS011;5553;48.506;8.870;2023-03-01T11:00:15;28.60;;;17.13;;
11000;SDS011;5553;48.506;8.870;2023-03-01T11:02:49;25.20;;;15.60;;
11000;SDS011;5553;48.506;8.870;2023-03-01T11:05:20;28.70;;;16.30;;
11000;SDS011;5553;48.506;8.870;2023-03-01T11:07:56;29.07;;;16.83;;
11000;SDS011;5553;48.506;8.870;2023-03-01T11:10:27;26.60;;;16.90;;
11000;SDS011;5553;48.506;8.870;2023-03-01T11:13:05;25.73;;;16.57;;
11000;SDS011;5553;48.506;8.870;2023-03-01T11:15:35;25.23;;;15.50;;
11000;SDS011;5553;48.506;8.870;2023-03-01T11:18:04;24.30;;;15.33;;
11000;SDS011;5553;48.506;8.870;2023-03-01T11:20:33;26.77;;;16.43;;
11000;SDS011;5553;48.506;8.870;2023-03-01T11:23:09;25.20;;;15.80;;
11000;SDS011;5553;48.506;8.870;2023-03-01T11:25:41;31.80;;;17.97;;
11000;SDS011;5553;48.506;8.870;2023-03-01T11:28:12;29.07;;;16.80;;
11000;SDS011;5553;48.506;8.870;2023-03-01T11:30:44;27.53;;;17.00;;
11000;SDS011;5553;48.506;8.870;2023-03-01T11:33:20;28.67;;;18.23;;
11000;SDS011;5553;48.506;8.870;2023-03-01T11:36:03;26.13;;;17.40;;
11000;SDS011;5553;48.506;8.870;2023-03-01T11:38:37;26.10;;;16.40;;
11000;SDS011;5553;48.506;8.870;2023-03-01T11:41:08;24.20;;;17.00;;
11000;SDS011;5553;48.506;8.870;2023-03-01T11:43:43;27.37;;;17.00;;
11000;SDS011;5553;48.506;8.870;2023-03-01T11:46:33;25.73;;;17.63;;
11000;SDS011;5553;48.506;8.870;2023-03-01T11:52:07;27.70;;;16.87;;
11000;SDS011;5553;48.506;8.870;2023-03-01T11:54:47;26.27;;;17.60;;
11000;SDS011;5553;48.506;8.870;2023-03-01T11:57:31;28.70;;;18.23;;
11000;SDS011;5553;48.506;8.870;2023-03-01T12:00:16;22.50;;;15.97;;
11000;SDS011;5553;48.506;8.870;2023-03-01T12:03:03;30.73;;;20.90;;
11000;SDS011;5553;48.506;8.870;2023-03-01T12:05:53;26.67;;;17.57;;
11000;SDS011;5553;48.506;8.870;2023-03-01T12:08:41;26.40;;;16.80;;
11000;SDS011;5553;48.506;8.870;2023-03-01T12:11:21;28.93;;;17.53;;
11000;SDS011;5553;48.506;8.870;2023-03-01T12:16:56;25.00;;;16.60;;
11000;SDS011;5553;48.506;8.870;2023-03-01T12:19:37;25.87;;;16.80;;
11000;SDS011;5553;48.506;8.870;2023-03-01T12:22:44;26.07;;;16.73;;
11000;SDS011;5553;48.506;8.870;2023-03-01T12:25:25;22.97;;;16.57;;
11000;SDS011;5553;48.506;8.870;2023-03-01T12:28:17;22.67;;;16.47;;
11000;SDS011;5553;48.506;8.870;2023-03-01T12:34:07;22.90;;;16.40;;
11000;SDS011;5553;48.506;8.870;2023-03-01T12:36:53;25.07;;;16.57;;
11000;SDS011;5553;48.506;8.870;2023-03-01T12:39:39;28.00;;;17.67;;
11000;SDS011;5553;48.506;8.870;2023-03-01T12:42:20;21.20;;;16.80;;
11000;SDS011;5553;48.506;8.870;2023-03-01T12:45:21;21.47;;;16.70;;
11000;SDS011;5553;48.506;8.870;2023-03-01T12:48:05;23.93;;;16.00;;
11000;SDS011;5553;48.506;8.870;2023-03-01T12:50:46;25.63;;;16.23;;
11000;SDS011;5553;48.506;8.870;2023-03-01T12:53:23;21.90;;;15.83;;
11000;SDS011;5553;48.506;8.870;2023-03-01T12:55:55;22.37;;;16.20;;
11000;SDS011;5553;48.506;8.870;2023-03-01T12:58:29;22.83;;;15.40;;
11000;SDS011;5553;48.506;8.870;2023-03-01T13:01:05;20.40;;;15.13;;
11000;SDS011;5553;48.506;8.870;2023-03-01T13:03:51;20.83;;;15.30;;
11000;SDS011;5553;48.506;8.870;2023-03-01T13:06:29;21.90;;;15.40;;
11000;SDS011;5553;48.506;8.870;2023-03-01T13:09:07;20.83;;;15.33;;
11000;SDS011;5553;48.506;8.870;2023-03-01T13:11:48;22.93;;;14.37;;
11000;SDS011;5553;48.506;8.870;2023-03-01T13:17:07;19.13;;;14.87;;
11000;SDS011;5553;48.506;8.870;2023-03-01T13:22:42;21.20;;;14.47;;
11000;SDS011;5553;48.506;8.870;2023-03-01T13:25:12;22.37;;;16.30;;
11000;SDS011;5553;48.506;8.870;2023-03-01T13:27:43;24.57;;;15.73;;
11000;SDS011;5553;48.506;8.870;2023-03-01T13:36:11;25.00;;;17.80;;
11000;SDS011;5553;48.506;8.870;2023-03-01T13:39:04;23.40;;;16.60;;
11000;SDS011;5553;48.506;8.870;2023-03-01T13:41:53;20.83;;;15.87;;
11000;SDS011;5553;48.506;8.870;2023-03-01T13:44:24;21.20;;;16.90;;
11000;SDS011;5553;48.506;8.870;2023-03-01T13:46:56;20.27;;;16.00;;
11000;SDS011;5553;48.506;8.870;2023-03-01T13:49:27;26.27;;;17.03;;
11000;SDS011;5553;48.506;8.870;2023-03-01T13:52:03;21.30;;;16.00;;
11000;SDS011;5553;48.506;8.870;2023-03-01T13:54:35;23.30;;;16.00;;
11000;SDS011;5553;48.506;8.870;2023-03-01T13:57:12;24.23;;;15.90;;
11000;SDS011;5553;48.506;8.870;2023-03-01T13:59:50;21.40;;;15.13;;
11000;SDS011;5553;48.506;8.870;2023-03-01T14:02:18;21.33;;;15.60;;
11000;SDS011;5553;48.506;8.870;2023-03-01T14:04:55;22.53;;;15.50;;
11000;SDS011;5553;48.506;8.870;2023-03-01T14:07:24;23.27;;;14.47;;
11000;SDS011;5553;48.506;8.870;2023-03-01T14:09:57;20.03;;;15.30;;
11000;SDS011;5553;48.506;8.870;2023-03-01T14:12:32;23.53;;;15.20;;
11000;SDS011;5553;48.506;8.870;2023-03-01T14:15:10;23.57;;;16.77;;
11000;SDS011;5553;48.506;8.870;2023-03-01T14:17:49;23.33;;;14.93;;
11000;SDS011;5553;48.506;8.870;2023-03-01T14:20:31;23.70;;;16.27;;
11000;SDS011;5553;48.506;8.870;2023-03-01T14:23:02;24.67;;;14.90;;
11000;SDS011;5553;48.506;8.870;2023-03-01T14:25:45;22.70;;;14.93;;
11000;SDS011;5553;48.506;8.870;2023-03-01T14:28:17;22.47;;;15.60;;
11000;SDS011;5553;48.506;8.870;2023-03-01T14:30:48;23.83;;;16.00;;
11000;SDS011;5553;48.506;8.870;2023-03-01T14:33:19;22.70;;;17.10;;
11000;SDS011;5553;48.506;8.870;2023-03-01T14:35:57;23.50;;;15.37;;
11000;SDS011;5553;48.506;8.870;2023-03-01T14:38:31;26.67;;;15.93;;
11000;SDS011;5553;48.506;8.870;2023-03-01T14:41:04;19.57;;;14.87;;
11000;SDS011;5553;48.506;8.870;2023-03-01T14:43:36;22.17;;;14.70;;
11000;SDS011;5553;48.506;8.870;2023-03-01T14:46:15;24.70;;;15.67;;
11000;SDS011;5553;48.506;8.870;2023-03-01T14:48:48;20.30;;;14.47;;
11000;SDS011;5553;48.506;8.870;2023-03-01T14:51:17;26.53;;;14.90;;
11000;SDS011;5553;48.506;8.870;2023-03-01T14:53:46;22.37;;;14.97;;
11000;SDS011;5553;48.506;8.870;2023-03-01T14:56:17;26.63;;;16.33;;
11000;SDS011;5553;48.506;8.870;2023-03-01T14:58:46;23.20;;;16.53;;
11000;SDS011;5553;48.506;8.870;2023-03-01T15:01:18;23.30;;;14.60;;
11000;SDS011;5553;48.506;8.870;2023-03-01T15:03:47;22.40;;;14.47;;
11000;SDS011;5553;48.506;8.870;2023-03-01T15:06:18;21.67;;;14.37;;
11000;SDS011;5553;48.506;8.870;2023-03-01T15:08:50;21.80;;;15.20;;
11000;SDS011;5553;48.506;8.870;2023-03-01T15:11:23;21.20;;;14.23;;
11000;SDS011;5553;48.506;8.870;2023-03-01T15:13:54;23.30;;;15.90;;
11000;SDS011;5553;48.506;8.870;2023-03-01T15:16:23;21.23;;;14.37;;
11000;SDS011;5553;48.506;8.870;2023-03-01T15:18:54;24.93;;;14.07;;
11000;SDS011;5553;48.506;8.870;2023-03-01T15:21:24;21.23;;;12.97;;
11000;SDS011;5553;48.506;8.870;2023-03-01T15:23:55;23.43;;;13.93;;
11000;SDS011;5553;48.506;8.870;2023-03-01T15:26:29;21.93;;;14.20;;
11000;SDS011;5553;48.506;8.870;2023-03-01T15:28:59;22.43;;;14.50;;
11000;SDS011;5553;48.506;8.870;2023-03-01T15:31:29;23.27;;;13.90;;
11000;SDS011;5553;48.506;8.870;2023-03-01T15:34:19;21.47;;;13.63;;